Aviation Digital Data Service (ADDS)

Output produced by METARs form (1816 UTC 19 August 2019)
found at http://www.aviationweather.gov/metar/data/
 
Forecast for: ZYTL (DALIAN/DAIREN/LU, CN)
Text: TAF ZYTL 191507Z 1918/2018 16004MPS CAVOK TX31/2006Z TN20/1921Z
Forecast period: 1800 UTC 19 August 2019 to 1800 UTC 20 August 2019
Forecast type: FROM: standard forecast or significant change
Winds: from the SSE (160 degrees) at 9 MPH (8 knots; 4.1 m/s)
Visibility: 6 or more miles 10+ km)
Ceiling: unknown
Clouds: missing
Weather: no significant weather forecast for this period